createdAt,value
2023-01-01T00:02:09.073Z,7.50
2023-01-01T00:04:35.843Z,7.60
2023-01-01T00:07:02.483Z,7.60
2023-01-01T00:09:47.622Z,7.50
2023-01-01T00:12:14.328Z,7.60
2023-01-01T00:14:43.132Z,7.60
2023-01-01T00:17:10.254Z,7.70
2023-01-01T00:19:37.078Z,7.70
2023-01-01T00:22:27.914Z,7.80
2023-01-01T00:24:50.560Z,7.80
2023-01-01T00:27:17.300Z,7.80
2023-01-01T00:29:44.174Z,7.90
2023-01-01T00:32:15.454Z,7.90
2023-01-01T00:34:45.858Z,7.90
2023-01-01T00:37:12.602Z,7.80
2023-01-01T00:39:39.239Z,7.70
2023-01-01T00:42:05.908Z,7.70
2023-01-01T00:44:32.527Z,7.70
2023-01-01T00:46:59.167Z,7.60
2023-01-01T00:49:25.814Z,7.60
2023-01-01T00:51:52.433Z,7.50
2023-01-01T00:54:19.184Z,7.50
2023-01-01T00:56:45.845Z,7.40
2023-01-01T00:59:12.480Z,7.40
2023-01-01T01:01:40.808Z,7.30
2023-01-01T01:04:09.090Z,7.30
2023-01-01T01:06:36.149Z,7.40
2023-01-01T01:09:02.990Z,7.30
2023-01-01T01:11:29.661Z,7.30
2023-01-01T01:13:56.875Z,7.20
2023-01-01T01:16:28.285Z,7.30
2023-01-01T01:18:57.591Z,7.30
2023-01-01T01:21:25.086Z,7.30
2023-01-01T01:23:51.914Z,7.30
2023-01-01T01:26:23.500Z,7.20
2023-01-01T01:28:50.686Z,7.40
2023-01-01T01:31:18.158Z,7.30
2023-01-01T01:33:45.684Z,7.40
2023-01-01T01:36:12.954Z,7.40
2023-01-01T01:38:39.652Z,7.40
2023-01-01T01:41:08.755Z,7.40
2023-01-01T01:43:35.432Z,7.40
2023-01-01T01:46:05.863Z,7.50
2023-01-01T01:48:37.277Z,7.30
2023-01-01T01:51:04.109Z,7.30
2023-01-01T01:53:32.545Z,7.30
2023-01-01T01:56:04.620Z,7.20
2023-01-01T01:58:31.773Z,7.20
2023-01-01T02:00:59.372Z,7.20
2023-01-01T02:03:32.338Z,7.20
2023-01-01T02:05:59.049Z,7.20
2023-01-01T02:08:26.032Z,7.10
2023-01-01T02:10:52.727Z,7.10
2023-01-01T02:13:19.543Z,7.10
2023-01-01T02:15:54.480Z,7.00
2023-01-01T02:18:26.116Z,6.90
2023-01-01T02:21:06.759Z,6.80
2023-01-01T02:23:48.215Z,6.80
2023-01-01T02:26:38.709Z,6.80
2023-01-01T02:29:24.539Z,6.70
2023-01-01T02:31:57.622Z,6.70
2023-01-01T02:34:27.256Z,6.70
2023-01-01T02:36:55.283Z,6.80
2023-01-01T02:39:25.241Z,6.90
2023-01-01T02:41:54.242Z,7.30
2023-01-01T02:44:22.377Z,7.50
2023-01-01T02:46:49.010Z,7.80
2023-01-01T02:49:15.758Z,8.10
2023-01-01T02:51:52.200Z,8.40
2023-01-01T02:54:18.816Z,8.60
2023-01-01T02:56:54.386Z,8.80
2023-01-01T02:59:39.520Z,9.00
2023-01-01T03:02:21.651Z,9.10
2023-01-01T03:05:01.522Z,9.20
2023-01-01T03:07:46.527Z,9.10
2023-01-01T03:10:15.625Z,9.00
2023-01-01T03:13:05.610Z,8.80
2023-01-01T03:15:59.894Z,8.60
2023-01-01T03:18:30.745Z,8.40
2023-01-01T03:20:58.894Z,8.20
2023-01-01T03:23:28.161Z,8.20
2023-01-01T03:25:57.443Z,8.10
2023-01-01T03:28:26.845Z,7.80
2023-01-01T03:30:54.093Z,7.60
2023-01-01T03:33:23.594Z,7.50
2023-01-01T03:35:51.781Z,7.40
2023-01-01T03:38:21.259Z,7.30
2023-01-01T03:40:49.149Z,7.20
2023-01-01T03:43:19.463Z,7.10
2023-01-01T03:45:47.682Z,7.00
2023-01-01T03:48:14.353Z,6.90
2023-01-01T03:50:56.918Z,6.90
2023-01-01T03:53:40.789Z,6.80
2023-01-01T03:56:20.182Z,6.70
2023-01-01T03:58:54.872Z,6.80
2023-01-01T04:01:27.097Z,6.70
2023-01-01T04:03:54.075Z,6.70
2023-01-01T04:06:20.931Z,6.70
2023-01-01T04:08:49.248Z,6.70
2023-01-01T04:11:36.885Z,6.70
2023-01-01T04:14:03.543Z,6.60
2023-01-01T04:16:30.353Z,6.70
2023-01-01T04:18:57.106Z,6.60
2023-01-01T04:21:23.708Z,6.60
2023-01-01T04:23:50.371Z,6.60
2023-01-01T04:26:17.116Z,6.60
2023-01-01T04:28:44.162Z,6.50
2023-01-01T04:31:11.775Z,6.50
2023-01-01T04:33:38.437Z,6.60
2023-01-01T04:36:06.291Z,6.60
2023-01-01T04:38:33.625Z,6.50
2023-01-01T04:41:00.793Z,6.40
2023-01-01T04:43:27.772Z,6.40
2023-01-01T04:46:01.349Z,6.30
2023-01-01T04:48:28.581Z,6.30
2023-01-01T04:50:59.242Z,6.30
2023-01-01T04:53:28.673Z,6.30
2023-01-01T04:55:55.424Z,6.20
2023-01-01T04:58:22.114Z,6.20
2023-01-01T05:00:50.086Z,6.10
2023-01-01T05:03:17.361Z,6.10
2023-01-01T05:05:49.451Z,6.10
2023-01-01T05:08:17.856Z,6.10
2023-01-01T05:10:44.496Z,6.00
2023-01-01T05:13:11.129Z,6.00
2023-01-01T05:15:37.844Z,6.00
2023-01-01T05:18:04.786Z,6.00
2023-01-01T05:20:31.570Z,5.90
2023-01-01T05:22:58.328Z,5.80
2023-01-01T05:25:25.180Z,5.60
2023-01-01T05:27:51.924Z,5.60
2023-01-01T05:30:18.594Z,5.60
2023-01-01T05:32:45.258Z,5.60
2023-01-01T05:35:11.903Z,5.70
2023-01-01T05:37:38.709Z,5.60
2023-01-01T05:40:05.751Z,5.60
2023-01-01T05:42:32.415Z,5.60
2023-01-01T05:44:59.072Z,5.60
2023-01-01T05:47:29.658Z,5.60
2023-01-01T05:49:56.667Z,5.60
2023-01-01T05:52:26.832Z,5.70
2023-01-01T05:54:54.019Z,5.70
2023-01-01T05:57:20.741Z,5.70
2023-01-01T05:59:47.389Z,5.70
2023-01-01T06:02:14.177Z,5.60
2023-01-01T06:04:41.129Z,5.50
2023-01-01T06:07:07.783Z,5.50
2023-01-01T06:09:34.366Z,5.50
2023-01-01T06:12:01.055Z,5.40
2023-01-01T06:14:27.753Z,5.50
2023-01-01T06:16:54.462Z,5.40
2023-01-01T06:19:21.136Z,5.30
2023-01-01T06:21:47.875Z,5.30
2023-01-01T06:24:14.578Z,5.30
2023-01-01T06:26:41.485Z,5.30
2023-01-01T06:29:08.195Z,5.30
2023-01-01T06:31:40.477Z,5.20
2023-01-01T06:34:07.804Z,5.30
2023-01-01T06:36:34.559Z,5.20
2023-01-01T06:39:03.507Z,5.10
2023-01-01T06:41:30.960Z,5.10
2023-01-01T06:43:58.524Z,5.10
2023-01-01T06:46:26.601Z,5.10
2023-01-01T06:48:57.860Z,5.20
2023-01-01T06:51:25.914Z,5.10
2023-01-01T06:53:52.947Z,5.20
2023-01-01T06:56:20.352Z,5.10
2023-01-01T06:58:47.070Z,5.00
2023-01-01T07:01:18.027Z,5.00
2023-01-01T07:03:45.467Z,5.00
2023-01-01T07:06:12.219Z,5.00
2023-01-01T07:08:38.938Z,4.90
2023-01-01T07:11:05.676Z,4.90
2023-01-01T07:13:32.615Z,4.90
2023-01-01T07:15:59.797Z,4.90
2023-01-01T07:18:26.779Z,4.90
2023-01-01T07:21:00.629Z,4.90
2023-01-01T07:23:28.564Z,4.90
2023-01-01T07:25:55.605Z,5.00
2023-01-01T07:28:22.686Z,5.10
2023-01-01T07:30:49.535Z,5.10
2023-01-01T07:33:20.365Z,5.20
2023-01-01T07:35:47.198Z,5.30
2023-01-01T07:38:14.515Z,5.50
2023-01-01T07:40:41.642Z,5.60
2023-01-01T07:43:08.467Z,5.80
2023-01-01T07:45:35.487Z,5.90
2023-01-01T07:48:02.237Z,6.10
2023-01-01T07:50:30.429Z,6.30
2023-01-01T07:52:57.296Z,6.40
2023-01-01T07:55:24.135Z,6.50
2023-01-01T07:57:50.777Z,6.60
2023-01-01T08:00:18.915Z,6.80
2023-01-01T08:02:46.012Z,6.90
2023-01-01T08:05:12.903Z,7.20
2023-01-01T08:07:39.672Z,7.40
2023-01-01T08:10:06.658Z,7.90
2023-01-01T08:12:33.713Z,8.40
2023-01-01T08:15:00.429Z,8.90
2023-01-01T08:17:27.212Z,9.40
2023-01-01T08:19:53.865Z,9.50
2023-01-01T08:22:20.539Z,9.80
2023-01-01T08:24:47.374Z,9.90
2023-01-01T08:27:14.804Z,9.90
2023-01-01T08:29:41.817Z,9.90
2023-01-01T08:32:08.548Z,9.80
2023-01-01T08:34:35.186Z,9.70
2023-01-01T08:37:01.917Z,9.60
2023-01-01T08:39:28.888Z,9.50
2023-01-01T08:41:55.514Z,9.50
2023-01-01T08:44:22.181Z,9.60
2023-01-01T08:46:49.002Z,9.50
2023-01-01T08:49:15.846Z,9.40
2023-01-01T08:51:42.503Z,9.30
2023-01-01T08:54:09.261Z,9.30
2023-01-01T08:56:37.617Z,9.40
2023-01-01T08:59:04.730Z,9.80
2023-01-01T09:01:32.053Z,10.20
2023-01-01T09:03:58.722Z,10.50
2023-01-01T09:06:25.415Z,10.70
2023-01-01T09:08:52.120Z,10.80
2023-01-01T09:11:26.291Z,10.70
2023-01-01T09:13:53.462Z,10.90
2023-01-01T09:16:20.605Z,11.50
2023-01-01T09:18:47.403Z,12.00
2023-01-01T09:21:14.111Z,12.60
2023-01-01T09:23:40.999Z,12.80
2023-01-01T09:26:08.952Z,12.70
2023-01-01T09:28:35.995Z,12.40
2023-01-01T09:31:05.302Z,12.50
2023-01-01T09:33:32.451Z,12.80
2023-01-01T09:36:16.041Z,13.00
2023-01-01T09:38:42.926Z,13.10
2023-01-01T09:41:29.873Z,13.10
2023-01-01T09:44:03.301Z,12.90
2023-01-01T09:46:32.043Z,12.60
2023-01-01T09:49:01.354Z,12.60
2023-01-01T09:51:31.949Z,13.10
2023-01-01T09:54:01.640Z,13.60
2023-01-01T09:56:29.422Z,13.70
2023-01-01T09:58:58.848Z,13.50
2023-01-01T10:01:38.870Z,13.20
2023-01-01T10:04:05.618Z,12.90
2023-01-01T10:06:33.003Z,12.70
2023-01-01T10:09:20.546Z,12.70
2023-01-01T10:11:56.249Z,12.90
2023-01-01T10:14:32.224Z,13.40
2023-01-01T10:17:01.691Z,13.80
2023-01-01T10:19:32.336Z,13.90
2023-01-01T10:22:03.525Z,13.90
2023-01-01T10:24:36.590Z,14.10
2023-01-01T10:27:04.309Z,14.40
2023-01-01T10:29:40.374Z,14.80
2023-01-01T10:32:33.405Z,15.20
2023-01-01T10:35:00.997Z,15.30
2023-01-01T10:37:35.832Z,15.50
2023-01-01T10:40:13.451Z,15.50
2023-01-01T10:42:40.165Z,15.70
2023-01-01T10:45:11.954Z,15.90
2023-01-01T10:47:38.614Z,16.50
2023-01-01T10:50:08.103Z,17.10
2023-01-01T10:52:36.364Z,18.00
2023-01-01T10:55:03.530Z,18.40
2023-01-01T10:57:32.166Z,18.50
2023-01-01T11:00:17.455Z,18.70
2023-01-01T11:02:44.214Z,19.00
2023-01-01T11:05:21.931Z,18.80
2023-01-01T11:07:50.257Z,18.70
2023-01-01T11:10:25.784Z,18.90
2023-01-01T11:13:09.744Z,19.30
2023-01-01T11:15:38.955Z,19.90
2023-01-01T11:18:06.572Z,20.60
2023-01-01T11:20:33.552Z,21.00
2023-01-01T11:23:17.016Z,21.30
2023-01-01T11:25:56.474Z,21.80
2023-01-01T11:28:23.158Z,22.20
2023-01-01T11:31:04.272Z,22.60
2023-01-01T11:33:32.297Z,22.70
2023-01-01T11:35:59.194Z,23.10
2023-01-01T11:38:29.787Z,22.80
2023-01-01T11:41:01.502Z,22.50
2023-01-01T11:43:29.031Z,22.70
2023-01-01T11:45:57.319Z,22.90
2023-01-01T11:48:26.842Z,22.90
2023-01-01T11:50:55.185Z,22.20
2023-01-01T11:53:24.949Z,21.90
2023-01-01T11:56:13.244Z,21.20
2023-01-01T11:58:54.457Z,21.10
2023-01-01T12:01:24.223Z,20.80
2023-01-01T12:03:54.029Z,20.80
2023-01-01T12:06:20.681Z,20.90
2023-01-01T12:08:51.610Z,20.70
2023-01-01T12:11:25.171Z,20.70
2023-01-01T12:13:56.333Z,20.70
2023-01-01T12:16:26.732Z,20.70
2023-01-01T12:18:59.408Z,20.80
2023-01-01T12:21:26.812Z,20.60
2023-01-01T12:23:54.124Z,20.40
2023-01-01T12:26:32.821Z,20.40
2023-01-01T12:29:05.473Z,20.30
2023-01-01T12:31:56.799Z,20.00
2023-01-01T12:34:26.441Z,19.60
2023-01-01T12:37:11.121Z,19.40
2023-01-01T12:39:37.804Z,19.00
2023-01-01T12:42:14.455Z,18.50
2023-01-01T12:44:59.776Z,18.20
2023-01-01T12:47:29.554Z,18.10
2023-01-01T12:50:08.870Z,17.90
2023-01-01T12:52:41.264Z,17.80
2023-01-01T12:55:19.989Z,17.50
2023-01-01T12:57:55.323Z,17.60
2023-01-01T13:00:22.049Z,17.60
2023-01-01T13:02:58.569Z,17.60
2023-01-01T13:05:28.830Z,17.50
2023-01-01T13:07:59.024Z,17.60
2023-01-01T13:10:27.786Z,17.60
2023-01-01T13:12:56.000Z,17.70
2023-01-01T13:15:34.986Z,17.60
2023-01-01T13:18:03.548Z,17.50
2023-01-01T13:20:30.173Z,17.50
2023-01-01T13:22:57.081Z,17.70
2023-01-01T13:25:24.435Z,17.80
2023-01-01T13:27:57.376Z,17.80
2023-01-01T13:30:45.325Z,17.80
2023-01-01T13:33:28.974Z,17.80
2023-01-01T13:36:08.244Z,17.80
2023-01-01T13:38:43.940Z,17.90
2023-01-01T13:41:29.306Z,17.80
2023-01-01T13:44:05.192Z,17.80
2023-01-01T13:46:44.305Z,17.60
2023-01-01T13:49:20.157Z,17.60
2023-01-01T13:52:07.157Z,17.60
2023-01-01T13:54:53.020Z,17.60
2023-01-01T13:57:28.562Z,17.60
2023-01-01T14:00:07.443Z,17.60
2023-01-01T14:02:46.604Z,17.60
2023-01-01T14:05:25.373Z,17.50
2023-01-01T14:07:53.325Z,17.50
2023-01-01T14:10:23.393Z,17.50
2023-01-01T14:12:50.810Z,17.40
2023-01-01T14:15:24.270Z,17.40
2023-01-01T14:17:52.578Z,17.40
2023-01-01T14:20:21.613Z,17.30
2023-01-01T14:22:48.897Z,17.20
2023-01-01T14:25:17.238Z,17.20
2023-01-01T14:27:44.819Z,17.00
2023-01-01T14:30:15.696Z,17.00
2023-01-01T14:32:42.498Z,16.90
2023-01-01T14:35:14.590Z,16.90
2023-01-01T14:37:41.313Z,16.80
2023-01-01T14:40:14.800Z,16.80
2023-01-01T14:42:41.861Z,16.70
2023-01-01T14:45:14.156Z,16.70
2023-01-01T14:47:40.915Z,16.60
2023-01-01T14:50:19.055Z,16.40
2023-01-01T14:52:46.321Z,16.20
2023-01-01T14:55:18.229Z,16.10
2023-01-01T14:57:46.695Z,15.90
2023-01-01T15:00:20.674Z,15.70
2023-01-01T15:02:47.745Z,15.60
2023-01-01T15:05:23.467Z,15.30
2023-01-01T15:07:58.053Z,15.10
2023-01-01T15:10:28.710Z,14.90
2023-01-01T15:12:56.247Z,14.70
2023-01-01T15:15:35.026Z,14.60
2023-01-01T15:18:03.594Z,14.40
2023-01-01T15:20:30.639Z,14.20
2023-01-01T15:22:57.637Z,14.00
2023-01-01T15:25:24.536Z,13.80
2023-01-01T15:27:52.722Z,13.50
2023-01-01T15:30:37.732Z,13.30
2023-01-01T15:33:08.314Z,13.10
2023-01-01T15:35:37.651Z,12.80
2023-01-01T15:38:04.328Z,12.70
2023-01-01T15:40:33.254Z,12.50
2023-01-01T15:42:59.988Z,12.30
2023-01-01T15:45:36.325Z,12.20
2023-01-01T15:48:06.278Z,12.10
2023-01-01T15:51:02.390Z,12.00
2023-01-01T15:53:30.335Z,11.90
2023-01-01T15:56:01.340Z,11.70
2023-01-01T15:58:28.075Z,11.50
2023-01-01T16:00:56.292Z,11.40
2023-01-01T16:03:24.879Z,11.30
2023-01-01T16:05:52.343Z,11.20
2023-01-01T16:08:20.182Z,11.10
2023-01-01T16:10:50.872Z,11.00
2023-01-01T16:13:17.576Z,10.90
2023-01-01T16:15:50.280Z,10.80
2023-01-01T16:18:17.908Z,10.70
2023-01-01T16:20:44.978Z,10.60
2023-01-01T16:23:12.225Z,10.50
2023-01-01T16:25:38.946Z,10.40
2023-01-01T16:28:06.049Z,10.20
2023-01-01T16:30:33.300Z,10.20
2023-01-01T16:33:00.160Z,10.10
2023-01-01T16:35:26.899Z,10.00
2023-01-01T16:37:53.631Z,10.00
2023-01-01T16:40:20.351Z,9.90
2023-01-01T16:42:47.161Z,9.80
2023-01-01T16:45:18.367Z,9.70
2023-01-01T16:47:45.937Z,9.60
2023-01-01T16:50:12.558Z,9.50
2023-01-01T16:52:44.426Z,9.50
2023-01-01T16:55:11.831Z,9.40
2023-01-01T16:57:40.109Z,9.50
2023-01-01T17:00:07.923Z,9.40
2023-01-01T17:02:35.093Z,9.30
2023-01-01T17:05:01.849Z,9.20
2023-01-01T17:07:28.480Z,9.10
2023-01-01T17:09:55.139Z,9.10
2023-01-01T17:12:21.934Z,9.10
2023-01-01T17:14:48.737Z,9.00
2023-01-01T17:17:15.448Z,9.00
2023-01-01T17:19:42.284Z,8.90
2023-01-01T17:22:09.052Z,8.90
2023-01-01T17:24:36.219Z,8.90
2023-01-01T17:27:02.990Z,8.80
2023-01-01T17:29:29.743Z,8.80
2023-01-01T17:31:56.377Z,8.80
2023-01-01T17:34:23.083Z,8.90
2023-01-01T17:36:49.836Z,8.80
2023-01-01T17:39:16.589Z,8.90
2023-01-01T17:41:43.748Z,8.80
2023-01-01T17:44:11.580Z,8.80
2023-01-01T17:46:38.576Z,8.70
2023-01-01T17:49:05.385Z,8.80
2023-01-01T17:51:32.102Z,8.80
2023-01-01T17:53:58.906Z,8.80
2023-01-01T17:56:25.602Z,8.80
2023-01-01T17:58:53.575Z,8.80
2023-01-01T18:01:23.567Z,8.70
2023-01-01T18:03:51.736Z,8.60
2023-01-01T18:06:18.863Z,8.60
2023-01-01T18:08:45.539Z,8.60
2023-01-01T18:11:12.224Z,8.50
2023-01-01T18:13:38.951Z,8.40
2023-01-01T18:16:09.018Z,8.40
2023-01-01T18:18:36.503Z,8.40
2023-01-01T18:21:04.152Z,8.40
2023-01-01T18:23:34.539Z,8.30
2023-01-01T18:26:02.027Z,8.20
2023-01-01T18:28:28.905Z,8.20
2023-01-01T18:30:55.617Z,8.20
2023-01-01T18:33:25.371Z,8.10
2023-01-01T18:35:55.760Z,8.10
2023-01-01T18:38:22.429Z,8.00
2023-01-01T18:40:58.793Z,8.00
2023-01-01T18:43:25.569Z,7.90
2023-01-01T18:45:52.289Z,7.90
2023-01-01T18:48:21.382Z,7.80
2023-01-01T18:50:48.096Z,7.90
2023-01-01T18:53:19.212Z,7.80
2023-01-01T18:55:51.232Z,7.70
2023-01-01T18:58:17.863Z,7.70
2023-01-01T19:00:44.799Z,7.60
2023-01-01T19:03:13.699Z,7.60
2023-01-01T19:05:40.818Z,7.70
2023-01-01T19:08:07.642Z,7.70
2023-01-01T19:10:35.960Z,7.70
2023-01-01T19:13:17.762Z,7.70
2023-01-01T19:15:45.999Z,7.70
2023-01-01T19:18:15.216Z,7.60
2023-01-01T19:20:41.992Z,7.50
2023-01-01T19:23:14.783Z,7.60
2023-01-01T19:25:41.536Z,7.60
2023-01-01T19:28:17.766Z,7.50
2023-01-01T19:30:45.405Z,7.50
2023-01-01T19:33:12.346Z,7.50
2023-01-01T19:35:39.244Z,7.40
2023-01-01T19:38:06.127Z,7.40
2023-01-01T19:40:32.882Z,7.40
2023-01-01T19:42:59.798Z,7.40
2023-01-01T19:45:26.516Z,7.40
2023-01-01T19:47:53.187Z,7.30
2023-01-01T19:50:21.241Z,7.30
2023-01-01T19:52:48.250Z,7.30
2023-01-01T19:55:14.994Z,7.20
2023-01-01T19:57:41.685Z,7.20
2023-01-01T20:00:08.806Z,7.10
2023-01-01T20:02:45.938Z,7.10
2023-01-01T20:05:13.050Z,7.10
2023-01-01T20:07:39.750Z,7.20
2023-01-01T20:10:06.705Z,7.20
2023-01-01T20:12:33.443Z,7.20
2023-01-01T20:15:00.234Z,7.10
2023-01-01T20:17:26.959Z,7.10
2023-01-01T20:19:54.825Z,7.20
2023-01-01T20:22:22.098Z,7.10
2023-01-01T20:24:49.073Z,7.10
2023-01-01T20:27:17.809Z,7.10
2023-01-01T20:29:44.639Z,7.00
2023-01-01T20:32:13.135Z,7.00
2023-01-01T20:34:40.247Z,7.10
2023-01-01T20:37:25.983Z,7.10
2023-01-01T20:39:53.151Z,7.10
2023-01-01T20:42:19.852Z,7.10
2023-01-01T20:44:46.504Z,7.10
2023-01-01T20:47:14.048Z,7.20
2023-01-01T20:49:41.731Z,7.20
2023-01-01T20:52:08.578Z,7.20
2023-01-01T20:54:35.407Z,7.10
2023-01-01T20:57:02.199Z,7.10
2023-01-01T20:59:35.860Z,7.10
2023-01-01T21:02:04.968Z,7.20
2023-01-01T21:04:32.032Z,7.10
2023-01-01T21:06:58.830Z,7.00
2023-01-01T21:09:25.562Z,7.00
2023-01-01T21:11:52.270Z,7.00
2023-01-01T21:14:19.788Z,6.80
2023-01-01T21:16:46.849Z,6.80
2023-01-01T21:19:13.651Z,6.70
2023-01-01T21:21:50.243Z,6.80
2023-01-01T21:24:27.457Z,6.90
2023-01-01T21:26:55.740Z,7.00
2023-01-01T21:29:24.253Z,7.00
2023-01-01T21:31:52.290Z,7.10
2023-01-01T21:34:23.139Z,7.10
2023-01-01T21:36:50.025Z,7.20
2023-01-01T21:39:18.436Z,7.20
2023-01-01T21:41:45.165Z,7.20
2023-01-01T21:44:14.124Z,7.20
2023-01-01T21:46:46.951Z,7.20
2023-01-01T21:49:24.647Z,7.20
2023-01-01T21:51:56.240Z,7.20
2023-01-01T21:54:27.217Z,7.20
2023-01-01T21:56:58.134Z,7.30
2023-01-01T21:59:33.499Z,7.30
2023-01-01T22:02:06.929Z,7.30
2023-01-01T22:04:41.039Z,7.40
2023-01-01T22:10:22.320Z,7.50
2023-01-01T22:12:53.518Z,7.60
2023-01-01T22:15:27.065Z,7.70
2023-01-01T22:18:13.114Z,7.60
2023-01-01T22:20:41.334Z,7.60
2023-01-01T22:23:34.244Z,7.60
2023-01-01T22:26:03.890Z,7.60
2023-01-01T22:28:37.755Z,7.60
2023-01-01T22:31:04.541Z,7.60
2023-01-01T22:33:31.492Z,7.60
2023-01-01T22:35:58.172Z,7.60
2023-01-01T22:38:28.934Z,7.60
2023-01-01T22:40:55.596Z,7.60
2023-01-01T22:43:33.010Z,7.60
2023-01-01T22:46:04.638Z,7.60
2023-01-01T22:48:34.025Z,7.60
2023-01-01T22:51:10.942Z,7.60
2023-01-01T22:53:37.699Z,7.50
2023-01-01T22:56:04.435Z,7.60
2023-01-01T22:58:31.336Z,7.60
2023-01-01T23:00:58.039Z,7.50
2023-01-01T23:03:24.748Z,7.50
2023-01-01T23:05:52.229Z,7.60
2023-01-01T23:08:19.511Z,7.50
2023-01-01T23:10:46.536Z,7.50
2023-01-01T23:13:35.071Z,7.40
2023-01-01T23:16:02.010Z,7.40
2023-01-01T23:18:30.036Z,7.50
2023-01-01T23:20:57.463Z,7.50
2023-01-01T23:23:24.508Z,7.40
2023-01-01T23:25:51.202Z,7.40
2023-01-01T23:28:18.177Z,7.40
2023-01-01T23:30:45.212Z,7.40
2023-01-01T23:33:12.063Z,7.30
2023-01-01T23:35:38.801Z,7.30
2023-01-01T23:38:05.611Z,7.30
2023-01-01T23:40:32.240Z,7.20
2023-01-01T23:42:59.335Z,7.20
2023-01-01T23:45:25.986Z,7.20
2023-01-01T23:47:52.870Z,7.10
2023-01-01T23:50:19.517Z,7.20
2023-01-01T23:52:46.316Z,7.10
2023-01-01T23:55:12.927Z,7.10
2023-01-01T23:57:39.615Z,7.00
